sensor_id;sensor_type;location;lat;lon;timestamp;P1;durP1;ratioP1;P2;durP2;ratioP2
63567;SDS011;49715;42.386;20.434;2022-12-18T00:01:03;11.57;;;7.28;;
63567;SDS011;49715;42.386;20.434;2022-12-18T00:03:35;9.57;;;7.38;;
63567;SDS011;49715;42.386;20.434;2022-12-18T00:06:02;12.80;;;7.88;;
63567;SDS011;49715;42.386;20.434;2022-12-18T00:08:28;10.03;;;7.70;;
63567;SDS011;49715;42.386;20.434;2022-12-18T00:10:54;8.43;;;7.15;;
63567;SDS011;49715;42.386;20.434;2022-12-18T00:13:21;10.32;;;7.07;;
63567;SDS011;49715;42.386;20.434;2022-12-18T00:15:47;10.33;;;7.40;;
63567;SDS011;49715;42.386;20.434;2022-12-18T00:18:13;8.43;;;6.88;;
63567;SDS011;49715;42.386;20.434;2022-12-18T00:20:39;8.83;;;6.30;;
63567;SDS011;49715;42.386;20.434;2022-12-18T00:23:06;9.60;;;6.63;;
63567;SDS011;49715;42.386;20.434;2022-12-18T00:25:33;8.23;;;6.43;;
63567;SDS011;49715;42.386;20.434;2022-12-18T00:28:01;8.85;;;6.68;;
63567;SDS011;49715;42.386;20.434;2022-12-18T00:30:28;11.95;;;7.22;;
63567;SDS011;49715;42.386;20.434;2022-12-18T00:32:54;11.27;;;6.78;;
63567;SDS011;49715;42.386;20.434;2022-12-18T00:35:23;9.10;;;6.90;;
63567;SDS011;49715;42.386;20.434;2022-12-18T00:37:50;7.97;;;6.60;;
63567;SDS011;49715;42.386;20.434;2022-12-18T00:40:16;11.77;;;6.83;;
63567;SDS011;49715;42.386;20.434;2022-12-18T00:42:42;11.17;;;7.37;;
63567;SDS011;49715;42.386;20.434;2022-12-18T00:45:25;9.73;;;6.68;;
63567;SDS011;49715;42.386;20.434;2022-12-18T00:47:53;12.88;;;7.47;;
63567;SDS011;49715;42.386;20.434;2022-12-18T00:50:21;10.02;;;6.47;;
63567;SDS011;49715;42.386;20.434;2022-12-18T00:52:49;10.90;;;6.75;;
63567;SDS011;49715;42.386;20.434;2022-12-18T00:55:16;11.48;;;6.72;;
63567;SDS011;49715;42.386;20.434;2022-12-18T01:00:11;11.23;;;6.97;;
63567;SDS011;49715;42.386;20.434;2022-12-18T01:02:41;9.57;;;6.88;;
63567;SDS011;49715;42.386;20.434;2022-12-18T01:05:08;10.32;;;7.13;;
63567;SDS011;49715;42.386;20.434;2022-12-18T01:07:36;13.77;;;6.78;;
63567;SDS011;49715;42.386;20.434;2022-12-18T01:10:03;9.50;;;6.97;;
63567;SDS011;49715;42.386;20.434;2022-12-18T01:12:31;12.60;;;6.95;;
63567;SDS011;49715;42.386;20.434;2022-12-18T01:14:57;12.00;;;7.25;;
63567;SDS011;49715;42.386;20.434;2022-12-18T01:17:24;11.48;;;6.80;;
63567;SDS011;49715;42.386;20.434;2022-12-18T01:19:50;12.15;;;7.15;;
63567;SDS011;49715;42.386;20.434;2022-12-18T01:22:16;14.63;;;7.53;;
63567;SDS011;49715;42.386;20.434;2022-12-18T01:24:44;15.90;;;8.43;;
63567;SDS011;49715;42.386;20.434;2022-12-18T01:27:10;16.40;;;9.33;;
63567;SDS011;49715;42.386;20.434;2022-12-18T01:29:37;11.57;;;8.48;;
63567;SDS011;49715;42.386;20.434;2022-12-18T01:32:03;13.60;;;7.40;;
63567;SDS011;49715;42.386;20.434;2022-12-18T01:34:30;18.98;;;8.88;;
63567;SDS011;49715;42.386;20.434;2022-12-18T01:36:56;13.40;;;7.43;;
63567;SDS011;49715;42.386;20.434;2022-12-18T01:39:23;16.43;;;7.90;;
63567;SDS011;49715;42.386;20.434;2022-12-18T01:41:49;16.37;;;7.47;;
63567;SDS011;49715;42.386;20.434;2022-12-18T01:50:13;14.38;;;6.35;;
63567;SDS011;49715;42.386;20.434;2022-12-18T01:52:49;11.90;;;6.30;;
63567;SDS011;49715;42.386;20.434;2022-12-18T01:55:20;14.45;;;6.88;;
63567;SDS011;49715;42.386;20.434;2022-12-18T01:57:49;11.85;;;6.50;;
63567;SDS011;49715;42.386;20.434;2022-12-18T02:00:21;17.73;;;7.63;;
63567;SDS011;49715;42.386;20.434;2022-12-18T02:02:51;18.08;;;6.97;;
63567;SDS011;49715;42.386;20.434;2022-12-18T02:05:22;14.98;;;6.97;;
63567;SDS011;49715;42.386;20.434;2022-12-18T02:10:24;11.27;;;7.38;;
63567;SDS011;49715;42.386;20.434;2022-12-18T02:18:33;8.80;;;5.95;;
63567;SDS011;49715;42.386;20.434;2022-12-18T02:27:09;11.45;;;6.40;;
63567;SDS011;49715;42.386;20.434;2022-12-18T02:29:41;8.93;;;6.43;;
63567;SDS011;49715;42.386;20.434;2022-12-18T02:32:14;8.23;;;6.10;;
63567;SDS011;49715;42.386;20.434;2022-12-18T02:34:47;8.57;;;5.45;;
63567;SDS011;49715;42.386;20.434;2022-12-18T02:37:18;8.55;;;5.18;;
63567;SDS011;49715;42.386;20.434;2022-12-18T02:39:48;7.65;;;5.88;;
63567;SDS011;49715;42.386;20.434;2022-12-18T02:42:16;10.88;;;6.30;;
63567;SDS011;49715;42.386;20.434;2022-12-18T02:44:44;11.07;;;6.10;;
63567;SDS011;49715;42.386;20.434;2022-12-18T02:47:16;11.35;;;6.35;;
63567;SDS011;49715;42.386;20.434;2022-12-18T02:49:52;8.75;;;5.93;;
63567;SDS011;49715;42.386;20.434;2022-12-18T02:55:10;11.50;;;6.38;;
63567;SDS011;49715;42.386;20.434;2022-12-18T02:57:42;8.35;;;6.28;;
63567;SDS011;49715;42.386;20.434;2022-12-18T03:00:22;9.02;;;6.60;;
63567;SDS011;49715;42.386;20.434;2022-12-18T03:03:16;9.18;;;6.43;;
63567;SDS011;49715;42.386;20.434;2022-12-18T03:05:52;9.45;;;5.97;;
63567;SDS011;49715;42.386;20.434;2022-12-18T03:11:01;8.18;;;6.05;;
63567;SDS011;49715;42.386;20.434;2022-12-18T03:16:22;13.68;;;6.40;;
63567;SDS011;49715;42.386;20.434;2022-12-18T03:19:01;9.02;;;6.00;;
63567;SDS011;49715;42.386;20.434;2022-12-18T03:21:33;9.38;;;5.90;;
63567;SDS011;49715;42.386;20.434;2022-12-18T03:24:06;8.35;;;6.32;;
63567;SDS011;49715;42.386;20.434;2022-12-18T03:26:35;9.20;;;6.50;;
63567;SDS011;49715;42.386;20.434;2022-12-18T03:29:09;11.80;;;7.00;;
63567;SDS011;49715;42.386;20.434;2022-12-18T03:31:40;9.43;;;7.03;;
63567;SDS011;49715;42.386;20.434;2022-12-18T03:34:14;10.38;;;6.18;;
63567;SDS011;49715;42.386;20.434;2022-12-18T03:36:45;10.07;;;6.50;;
63567;SDS011;49715;42.386;20.434;2022-12-18T03:39:13;9.15;;;6.40;;
63567;SDS011;49715;42.386;20.434;2022-12-18T03:41:51;9.27;;;6.40;;
63567;SDS011;49715;42.386;20.434;2022-12-18T03:44:36;9.10;;;6.25;;
63567;SDS011;49715;42.386;20.434;2022-12-18T03:49:52;11.45;;;6.57;;
63567;SDS011;49715;42.386;20.434;2022-12-18T03:52:35;11.65;;;7.07;;
63567;SDS011;49715;42.386;20.434;2022-12-18T03:55:08;15.18;;;8.88;;
63567;SDS011;49715;42.386;20.434;2022-12-18T03:57:38;14.43;;;8.85;;
63567;SDS011;49715;42.386;20.434;2022-12-18T04:00:11;14.38;;;9.40;;
63567;SDS011;49715;42.386;20.434;2022-12-18T04:02:41;18.15;;;9.50;;
63567;SDS011;49715;42.386;20.434;2022-12-18T04:05:14;14.13;;;9.10;;
63567;SDS011;49715;42.386;20.434;2022-12-18T04:07:45;16.17;;;8.93;;
63567;SDS011;49715;42.386;20.434;2022-12-18T04:10:17;21.48;;;7.43;;
63567;SDS011;49715;42.386;20.434;2022-12-18T04:12:46;16.42;;;8.88;;
63567;SDS011;49715;42.386;20.434;2022-12-18T04:15:13;15.35;;;8.98;;
63567;SDS011;49715;42.386;20.434;2022-12-18T04:17:43;14.70;;;9.15;;
63567;SDS011;49715;42.386;20.434;2022-12-18T04:20:17;13.88;;;9.20;;
63567;SDS011;49715;42.386;20.434;2022-12-18T04:22:44;16.42;;;10.23;;
63567;SDS011;49715;42.386;20.434;2022-12-18T04:25:11;19.05;;;9.18;;
63567;SDS011;49715;42.386;20.434;2022-12-18T04:27:47;14.52;;;9.48;;
63567;SDS011;49715;42.386;20.434;2022-12-18T04:30:13;19.15;;;10.70;;
63567;SDS011;49715;42.386;20.434;2022-12-18T04:32:40;19.73;;;10.45;;
63567;SDS011;49715;42.386;20.434;2022-12-18T04:35:08;18.08;;;9.88;;
63567;SDS011;49715;42.386;20.434;2022-12-18T04:37:38;21.08;;;10.98;;
63567;SDS011;49715;42.386;20.434;2022-12-18T04:42:39;18.40;;;11.13;;
63567;SDS011;49715;42.386;20.434;2022-12-18T04:45:06;21.33;;;10.48;;
63567;SDS011;49715;42.386;20.434;2022-12-18T04:47:34;21.35;;;10.23;;
63567;SDS011;49715;42.386;20.434;2022-12-18T04:50:00;17.57;;;10.77;;
63567;SDS011;49715;42.386;20.434;2022-12-18T04:52:26;20.52;;;10.88;;
63567;SDS011;49715;42.386;20.434;2022-12-18T04:54:53;19.63;;;10.55;;
63567;SDS011;49715;42.386;20.434;2022-12-18T04:57:19;16.37;;;10.47;;
63567;SDS011;49715;42.386;20.434;2022-12-18T04:59:45;19.97;;;11.27;;
63567;SDS011;49715;42.386;20.434;2022-12-18T05:02:12;17.50;;;11.88;;
63567;SDS011;49715;42.386;20.434;2022-12-18T05:04:38;20.55;;;11.65;;
63567;SDS011;49715;42.386;20.434;2022-12-18T05:07:05;21.17;;;11.45;;
63567;SDS011;49715;42.386;20.434;2022-12-18T05:09:31;20.80;;;11.77;;
63567;SDS011;49715;42.386;20.434;2022-12-18T05:11:57;22.20;;;10.93;;
63567;SDS011;49715;42.386;20.434;2022-12-18T05:14:24;16.65;;;10.82;;
63567;SDS011;49715;42.386;20.434;2022-12-18T05:16:50;17.80;;;11.45;;
63567;SDS011;49715;42.386;20.434;2022-12-18T05:19:16;18.33;;;11.48;;
63567;SDS011;49715;42.386;20.434;2022-12-18T05:21:42;19.37;;;11.07;;
63567;SDS011;49715;42.386;20.434;2022-12-18T05:24:09;18.67;;;12.43;;
63567;SDS011;49715;42.386;20.434;2022-12-18T05:26:35;18.13;;;11.90;;
63567;SDS011;49715;42.386;20.434;2022-12-18T05:29:01;19.50;;;11.43;;
63567;SDS011;49715;42.386;20.434;2022-12-18T05:31:28;19.98;;;11.10;;
63567;SDS011;49715;42.386;20.434;2022-12-18T05:33:54;18.58;;;11.55;;
63567;SDS011;49715;42.386;20.434;2022-12-18T05:36:21;20.52;;;10.02;;
63567;SDS011;49715;42.386;20.434;2022-12-18T05:38:47;15.20;;;10.05;;
63567;SDS011;49715;42.386;20.434;2022-12-18T05:41:14;16.50;;;11.13;;
63567;SDS011;49715;42.386;20.434;2022-12-18T05:43:40;15.73;;;10.10;;
63567;SDS011;49715;42.386;20.434;2022-12-18T05:46:07;14.20;;;9.65;;
63567;SDS011;49715;42.386;20.434;2022-12-18T05:48:37;16.77;;;10.98;;
63567;SDS011;49715;42.386;20.434;2022-12-18T05:51:07;16.40;;;10.60;;
63567;SDS011;49715;42.386;20.434;2022-12-18T05:53:35;15.70;;;10.88;;
63567;SDS011;49715;42.386;20.434;2022-12-18T05:56:03;17.58;;;11.25;;
63567;SDS011;49715;42.386;20.434;2022-12-18T05:58:31;16.33;;;10.77;;
63567;SDS011;49715;42.386;20.434;2022-12-18T06:01:05;15.20;;;10.60;;
63567;SDS011;49715;42.386;20.434;2022-12-18T06:03:37;17.85;;;11.32;;
63567;SDS011;49715;42.386;20.434;2022-12-18T06:06:03;18.40;;;11.75;;
63567;SDS011;49715;42.386;20.434;2022-12-18T06:08:30;18.55;;;11.68;;
63567;SDS011;49715;42.386;20.434;2022-12-18T06:10:57;18.08;;;11.15;;
63567;SDS011;49715;42.386;20.434;2022-12-18T06:13:23;19.67;;;12.40;;
63567;SDS011;49715;42.386;20.434;2022-12-18T06:15:49;17.80;;;10.60;;
63567;SDS011;49715;42.386;20.434;2022-12-18T06:18:16;17.35;;;10.82;;
63567;SDS011;49715;42.386;20.434;2022-12-18T06:20:42;17.23;;;10.93;;
63567;SDS011;49715;42.386;20.434;2022-12-18T06:23:08;18.73;;;12.20;;
63567;SDS011;49715;42.386;20.434;2022-12-18T06:25:36;19.70;;;13.38;;
63567;SDS011;49715;42.386;20.434;2022-12-18T06:28:05;20.42;;;14.65;;
63567;SDS011;49715;42.386;20.434;2022-12-18T06:30:31;28.70;;;15.90;;
63567;SDS011;49715;42.386;20.434;2022-12-18T06:32:58;32.90;;;18.70;;
63567;SDS011;49715;42.386;20.434;2022-12-18T06:35:24;28.07;;;16.33;;
63567;SDS011;49715;42.386;20.434;2022-12-18T06:37:51;58.90;;;35.47;;
63567;SDS011;49715;42.386;20.434;2022-12-18T06:40:17;38.05;;;23.92;;
63567;SDS011;49715;42.386;20.434;2022-12-18T06:42:43;23.97;;;16.23;;
63567;SDS011;49715;42.386;20.434;2022-12-18T06:45:10;29.25;;;15.95;;
63567;SDS011;49715;42.386;20.434;2022-12-18T06:50:03;23.53;;;14.13;;
63567;SDS011;49715;42.386;20.434;2022-12-18T06:52:31;28.23;;;13.20;;
63567;SDS011;49715;42.386;20.434;2022-12-18T06:54:58;31.83;;;15.63;;
63567;SDS011;49715;42.386;20.434;2022-12-18T06:57:24;29.93;;;15.17;;
63567;SDS011;49715;42.386;20.434;2022-12-18T06:59:50;34.27;;;16.10;;
63567;SDS011;49715;42.386;20.434;2022-12-18T07:02:17;35.07;;;16.43;;
63567;SDS011;49715;42.386;20.434;2022-12-18T07:04:43;32.50;;;15.90;;
63567;SDS011;49715;42.386;20.434;2022-12-18T07:07:10;23.10;;;13.80;;
63567;SDS011;49715;42.386;20.434;2022-12-18T07:09:36;24.83;;;14.53;;
63567;SDS011;49715;42.386;20.434;2022-12-18T07:12:02;24.20;;;13.97;;
63567;SDS011;49715;42.386;20.434;2022-12-18T07:14:31;25.00;;;14.00;;
63567;SDS011;49715;42.386;20.434;2022-12-18T07:16:57;23.73;;;14.83;;
63567;SDS011;49715;42.386;20.434;2022-12-18T07:19:24;28.08;;;15.50;;
63567;SDS011;49715;42.386;20.434;2022-12-18T07:21:50;29.65;;;16.15;;
63567;SDS011;49715;42.386;20.434;2022-12-18T07:24:17;33.53;;;18.35;;
63567;SDS011;49715;42.386;20.434;2022-12-18T07:26:45;28.37;;;16.77;;
63567;SDS011;49715;42.386;20.434;2022-12-18T07:29:12;32.78;;;17.05;;
63567;SDS011;49715;42.386;20.434;2022-12-18T07:34:09;31.52;;;18.48;;
63567;SDS011;49715;42.386;20.434;2022-12-18T07:36:36;34.15;;;18.80;;
63567;SDS011;49715;42.386;20.434;2022-12-18T07:39:03;33.00;;;18.65;;
63567;SDS011;49715;42.386;20.434;2022-12-18T07:41:29;30.55;;;18.13;;
63567;SDS011;49715;42.386;20.434;2022-12-18T07:43:56;35.47;;;18.35;;
63567;SDS011;49715;42.386;20.434;2022-12-18T07:46:22;25.50;;;15.43;;
63567;SDS011;49715;42.386;20.434;2022-12-18T07:48:48;26.90;;;13.43;;
63567;SDS011;49715;42.386;20.434;2022-12-18T07:51:15;19.57;;;13.20;;
63567;SDS011;49715;42.386;20.434;2022-12-18T07:53:42;17.35;;;13.30;;
63567;SDS011;49715;42.386;20.434;2022-12-18T07:56:09;19.07;;;12.53;;
63567;SDS011;49715;42.386;20.434;2022-12-18T07:58:37;21.42;;;13.68;;
63567;SDS011;49715;42.386;20.434;2022-12-18T08:01:05;19.60;;;13.27;;
63567;SDS011;49715;42.386;20.434;2022-12-18T08:03:34;24.10;;;13.10;;
63567;SDS011;49715;42.386;20.434;2022-12-18T08:06:01;21.48;;;11.70;;
63567;SDS011;49715;42.386;20.434;2022-12-18T08:08:30;24.17;;;14.00;;
63567;SDS011;49715;42.386;20.434;2022-12-18T08:10:57;24.42;;;14.07;;
63567;SDS011;49715;42.386;20.434;2022-12-18T08:13:24;37.38;;;14.77;;
63567;SDS011;49715;42.386;20.434;2022-12-18T08:16:02;24.80;;;15.50;;
63567;SDS011;49715;42.386;20.434;2022-12-18T08:18:33;23.58;;;13.88;;
63567;SDS011;49715;42.386;20.434;2022-12-18T08:21:13;26.63;;;13.90;;
63567;SDS011;49715;42.386;20.434;2022-12-18T08:23:42;25.77;;;14.77;;
63567;SDS011;49715;42.386;20.434;2022-12-18T08:26:09;27.60;;;13.18;;
63567;SDS011;49715;42.386;20.434;2022-12-18T08:28:36;23.83;;;13.23;;
63567;SDS011;49715;42.386;20.434;2022-12-18T08:31:03;24.58;;;13.65;;
63567;SDS011;49715;42.386;20.434;2022-12-18T08:33:31;25.95;;;14.02;;
63567;SDS011;49715;42.386;20.434;2022-12-18T08:35:58;34.55;;;14.20;;
63567;SDS011;49715;42.386;20.434;2022-12-18T08:38:25;25.90;;;13.55;;
63567;SDS011;49715;42.386;20.434;2022-12-18T08:41:02;32.50;;;13.27;;
63567;SDS011;49715;42.386;20.434;2022-12-18T08:43:33;29.90;;;14.73;;
63567;SDS011;49715;42.386;20.434;2022-12-18T08:46:19;34.53;;;15.88;;
63567;SDS011;49715;42.386;20.434;2022-12-18T08:48:46;32.80;;;14.98;;
63567;SDS011;49715;42.386;20.434;2022-12-18T08:53:41;31.45;;;14.10;;
63567;SDS011;49715;42.386;20.434;2022-12-18T08:56:08;29.10;;;15.15;;
63567;SDS011;49715;42.386;20.434;2022-12-18T08:58:34;32.20;;;15.67;;
63567;SDS011;49715;42.386;20.434;2022-12-18T09:01:02;32.38;;;15.95;;
63567;SDS011;49715;42.386;20.434;2022-12-18T09:03:29;32.50;;;14.57;;
63567;SDS011;49715;42.386;20.434;2022-12-18T09:05:56;36.17;;;15.10;;
63567;SDS011;49715;42.386;20.434;2022-12-18T09:08:22;31.48;;;14.55;;
63567;SDS011;49715;42.386;20.434;2022-12-18T09:10:49;35.75;;;15.57;;
63567;SDS011;49715;42.386;20.434;2022-12-18T09:13:16;31.70;;;15.55;;
63567;SDS011;49715;42.386;20.434;2022-12-18T09:15:45;33.58;;;16.25;;
63567;SDS011;49715;42.386;20.434;2022-12-18T09:18:14;30.92;;;16.08;;
63567;SDS011;49715;42.386;20.434;2022-12-18T09:20:42;36.03;;;14.63;;
63567;SDS011;49715;42.386;20.434;2022-12-18T09:23:10;32.97;;;15.98;;
63567;SDS011;49715;42.386;20.434;2022-12-18T09:25:37;28.77;;;15.20;;
63567;SDS011;49715;42.386;20.434;2022-12-18T09:28:04;29.90;;;16.08;;
63567;SDS011;49715;42.386;20.434;2022-12-18T09:30:39;30.90;;;14.82;;
63567;SDS011;49715;42.386;20.434;2022-12-18T09:33:07;27.50;;;17.35;;
63567;SDS011;49715;42.386;20.434;2022-12-18T09:35:36;27.77;;;14.40;;
63567;SDS011;49715;42.386;20.434;2022-12-18T09:38:03;29.00;;;15.75;;
63567;SDS011;49715;42.386;20.434;2022-12-18T09:40:32;34.47;;;18.03;;
63567;SDS011;49715;42.386;20.434;2022-12-18T09:43:09;32.15;;;17.50;;
63567;SDS011;49715;42.386;20.434;2022-12-18T09:45:43;25.48;;;16.60;;
63567;SDS011;49715;42.386;20.434;2022-12-18T09:48:19;25.40;;;15.88;;
63567;SDS011;49715;42.386;20.434;2022-12-18T09:50:49;25.80;;;13.07;;
63567;SDS011;49715;42.386;20.434;2022-12-18T09:53:19;30.17;;;16.05;;
63567;SDS011;49715;42.386;20.434;2022-12-18T09:55:48;18.90;;;13.32;;
63567;SDS011;49715;42.386;20.434;2022-12-18T09:58:28;24.60;;;14.45;;
63567;SDS011;49715;42.386;20.434;2022-12-18T10:01:26;21.75;;;12.88;;
63567;SDS011;49715;42.386;20.434;2022-12-18T10:03:53;23.38;;;13.60;;
63567;SDS011;49715;42.386;20.434;2022-12-18T10:09:07;24.27;;;14.10;;
63567;SDS011;49715;42.386;20.434;2022-12-18T10:28:17;33.45;;;13.82;;
63567;SDS011;49715;42.386;20.434;2022-12-18T10:30:46;33.83;;;16.73;;
63567;SDS011;49715;42.386;20.434;2022-12-18T10:33:17;19.40;;;13.10;;
63567;SDS011;49715;42.386;20.434;2022-12-18T10:35:47;24.90;;;13.38;;
63567;SDS011;49715;42.386;20.434;2022-12-18T10:38:21;20.67;;;12.98;;
63567;SDS011;49715;42.386;20.434;2022-12-18T10:41:00;21.35;;;11.40;;
63567;SDS011;49715;42.386;20.434;2022-12-18T10:43:32;24.73;;;14.23;;
63567;SDS011;49715;42.386;20.434;2022-12-18T10:46:04;15.15;;;10.00;;
63567;SDS011;49715;42.386;20.434;2022-12-18T10:48:41;17.58;;;10.45;;
63567;SDS011;49715;42.386;20.434;2022-12-18T10:51:47;21.90;;;13.23;;
63567;SDS011;49715;42.386;20.434;2022-12-18T10:54:13;20.90;;;11.80;;
63567;SDS011;49715;42.386;20.434;2022-12-18T10:56:42;19.73;;;12.35;;
63567;SDS011;49715;42.386;20.434;2022-12-18T10:59:09;21.40;;;12.60;;
63567;SDS011;49715;42.386;20.434;2022-12-18T11:04:23;21.25;;;11.80;;
63567;SDS011;49715;42.386;20.434;2022-12-18T11:06:59;20.42;;;12.02;;
63567;SDS011;49715;42.386;20.434;2022-12-18T11:11:58;17.23;;;9.48;;
63567;SDS011;49715;42.386;20.434;2022-12-18T11:14:28;20.20;;;10.52;;
63567;SDS011;49715;42.386;20.434;2022-12-18T11:16:57;23.55;;;13.68;;
63567;SDS011;49715;42.386;20.434;2022-12-18T11:22:19;28.02;;;15.55;;
63567;SDS011;49715;42.386;20.434;2022-12-18T11:24:53;23.55;;;15.05;;
63567;SDS011;49715;42.386;20.434;2022-12-18T11:27:19;26.00;;;13.48;;
63567;SDS011;49715;42.386;20.434;2022-12-18T11:29:46;28.10;;;16.88;;
63567;SDS011;49715;42.386;20.434;2022-12-18T11:34:58;24.65;;;13.80;;
63567;SDS011;49715;42.386;20.434;2022-12-18T11:37:28;23.92;;;13.15;;
63567;SDS011;49715;42.386;20.434;2022-12-18T11:39:57;30.02;;;14.02;;
63567;SDS011;49715;42.386;20.434;2022-12-18T11:42:39;24.38;;;13.07;;
63567;SDS011;49715;42.386;20.434;2022-12-18T11:50:50;27.15;;;15.98;;
63567;SDS011;49715;42.386;20.434;2022-12-18T11:53:20;24.23;;;14.48;;
63567;SDS011;49715;42.386;20.434;2022-12-18T12:23:53;17.65;;;12.13;;
63567;SDS011;49715;42.386;20.434;2022-12-18T12:34:37;17.88;;;11.63;;
63567;SDS011;49715;42.386;20.434;2022-12-18T12:40:23;20.13;;;13.38;;
63567;SDS011;49715;42.386;20.434;2022-12-18T12:42:54;18.90;;;12.50;;
63567;SDS011;49715;42.386;20.434;2022-12-18T12:51:04;16.90;;;12.55;;
63567;SDS011;49715;42.386;20.434;2022-12-18T12:53:37;19.38;;;13.20;;
63567;SDS011;49715;42.386;20.434;2022-12-18T12:56:04;24.88;;;13.23;;
63567;SDS011;49715;42.386;20.434;2022-12-18T12:58:43;24.60;;;14.25;;
63567;SDS011;49715;42.386;20.434;2022-12-18T13:04:21;17.75;;;12.48;;
63567;SDS011;49715;42.386;20.434;2022-12-18T13:07:05;17.92;;;12.32;;
63567;SDS011;49715;42.386;20.434;2022-12-18T13:10:11;20.85;;;12.77;;
63567;SDS011;49715;42.386;20.434;2022-12-18T13:15:46;17.67;;;11.97;;
63567;SDS011;49715;42.386;20.434;2022-12-18T13:18:32;16.83;;;11.82;;
63567;SDS011;49715;42.386;20.434;2022-12-18T13:21:02;24.33;;;15.10;;
63567;SDS011;49715;42.386;20.434;2022-12-18T13:23:39;25.77;;;16.70;;
63567;SDS011;49715;42.386;20.434;2022-12-18T13:31:02;26.02;;;16.80;;
63567;SDS011;49715;42.386;20.434;2022-12-18T13:38:46;25.48;;;15.15;;
63567;SDS011;49715;42.386;20.434;2022-12-18T13:43:45;28.30;;;15.80;;
63567;SDS011;49715;42.386;20.434;2022-12-18T13:51:31;29.00;;;14.80;;
63567;SDS011;49715;42.386;20.434;2022-12-18T13:54:00;35.10;;;16.00;;
63567;SDS011;49715;42.386;20.434;2022-12-18T13:56:30;26.50;;;15.27;;
63567;SDS011;49715;42.386;20.434;2022-12-18T14:01:47;29.15;;;16.80;;
63567;SDS011;49715;42.386;20.434;2022-12-18T14:04:20;30.35;;;16.90;;
63567;SDS011;49715;42.386;20.434;2022-12-18T14:06:50;32.25;;;15.70;;
63567;SDS011;49715;42.386;20.434;2022-12-18T14:09:24;32.25;;;16.08;;
63567;SDS011;49715;42.386;20.434;2022-12-18T14:11:53;31.08;;;15.52;;
63567;SDS011;49715;42.386;20.434;2022-12-18T14:14:47;37.00;;;15.15;;
63567;SDS011;49715;42.386;20.434;2022-12-18T14:17:16;33.13;;;15.73;;
63567;SDS011;49715;42.386;20.434;2022-12-18T14:19:48;34.10;;;14.27;;
63567;SDS011;49715;42.386;20.434;2022-12-18T14:22:17;33.67;;;13.57;;
63567;SDS011;49715;42.386;20.434;2022-12-18T14:24:47;38.95;;;15.63;;
63567;SDS011;49715;42.386;20.434;2022-12-18T14:27:53;35.70;;;16.58;;
63567;SDS011;49715;42.386;20.434;2022-12-18T14:30:29;39.60;;;16.23;;
63567;SDS011;49715;42.386;20.434;2022-12-18T14:33:01;31.92;;;15.25;;
63567;SDS011;49715;42.386;20.434;2022-12-18T14:35:35;34.20;;;15.60;;
63567;SDS011;49715;42.386;20.434;2022-12-18T14:40:42;35.60;;;16.15;;
63567;SDS011;49715;42.386;20.434;2022-12-18T14:43:10;33.53;;;14.98;;
63567;SDS011;49715;42.386;20.434;2022-12-18T14:48:18;32.72;;;14.50;;
63567;SDS011;49715;42.386;20.434;2022-12-18T14:50:53;35.20;;;14.90;;
63567;SDS011;49715;42.386;20.434;2022-12-18T14:53:23;31.08;;;15.07;;
63567;SDS011;49715;42.386;20.434;2022-12-18T14:56:01;32.08;;;14.23;;
63567;SDS011;49715;42.386;20.434;2022-12-18T14:58:29;34.45;;;15.52;;
63567;SDS011;49715;42.386;20.434;2022-12-18T15:00:56;28.98;;;15.57;;
63567;SDS011;49715;42.386;20.434;2022-12-18T15:03:22;36.85;;;16.48;;
63567;SDS011;49715;42.386;20.434;2022-12-18T15:05:48;38.30;;;16.95;;
63567;SDS011;49715;42.386;20.434;2022-12-18T15:08:27;37.73;;;18.67;;
63567;SDS011;49715;42.386;20.434;2022-12-18T15:10:56;35.30;;;15.88;;
63567;SDS011;49715;42.386;20.434;2022-12-18T15:13:23;34.53;;;17.95;;
63567;SDS011;49715;42.386;20.434;2022-12-18T15:18:19;32.10;;;14.82;;
63567;SDS011;49715;42.386;20.434;2022-12-18T15:20:56;32.60;;;14.45;;
63567;SDS011;49715;42.386;20.434;2022-12-18T15:23:29;31.52;;;13.93;;
63567;SDS011;49715;42.386;20.434;2022-12-18T15:28:27;40.17;;;15.35;;
63567;SDS011;49715;42.386;20.434;2022-12-18T15:33:44;35.45;;;15.02;;
63567;SDS011;49715;42.386;20.434;2022-12-18T15:36:29;35.13;;;15.95;;
63567;SDS011;49715;42.386;20.434;2022-12-18T15:38:56;35.60;;;15.75;;
63567;SDS011;49715;42.386;20.434;2022-12-18T15:41:25;37.67;;;15.93;;
63567;SDS011;49715;42.386;20.434;2022-12-18T15:43:52;30.70;;;12.88;;
63567;SDS011;49715;42.386;20.434;2022-12-18T15:46:20;34.08;;;14.07;;
63567;SDS011;49715;42.386;20.434;2022-12-18T15:48:51;29.85;;;12.20;;
63567;SDS011;49715;42.386;20.434;2022-12-18T15:51:31;30.45;;;12.93;;
63567;SDS011;49715;42.386;20.434;2022-12-18T15:54:01;30.05;;;13.52;;
63567;SDS011;49715;42.386;20.434;2022-12-18T15:56:29;27.23;;;13.45;;
63567;SDS011;49715;42.386;20.434;2022-12-18T15:59:15;26.42;;;13.38;;
63567;SDS011;49715;42.386;20.434;2022-12-18T16:01:46;30.23;;;13.93;;
63567;SDS011;49715;42.386;20.434;2022-12-18T16:04:16;31.10;;;13.93;;
63567;SDS011;49715;42.386;20.434;2022-12-18T16:06:46;27.45;;;14.35;;
63567;SDS011;49715;42.386;20.434;2022-12-18T16:11:41;28.33;;;14.27;;
63567;SDS011;49715;42.386;20.434;2022-12-18T16:14:20;29.40;;;13.75;;
63567;SDS011;49715;42.386;20.434;2022-12-18T16:16:47;29.83;;;14.30;;
63567;SDS011;49715;42.386;20.434;2022-12-18T16:19:15;29.90;;;14.73;;
63567;SDS011;49715;42.386;20.434;2022-12-18T16:21:42;31.67;;;14.40;;
63567;SDS011;49715;42.386;20.434;2022-12-18T16:24:19;27.25;;;14.75;;
63567;SDS011;49715;42.386;20.434;2022-12-18T16:26:53;32.50;;;15.80;;
63567;SDS011;49715;42.386;20.434;2022-12-18T16:29:20;35.22;;;16.40;;
63567;SDS011;49715;42.386;20.434;2022-12-18T16:31:50;30.10;;;17.35;;
63567;SDS011;49715;42.386;20.434;2022-12-18T16:36:48;34.15;;;15.60;;
63567;SDS011;49715;42.386;20.434;2022-12-18T16:39:15;33.35;;;15.45;;
63567;SDS011;49715;42.386;20.434;2022-12-18T16:41:42;33.90;;;16.45;;
63567;SDS011;49715;42.386;20.434;2022-12-18T16:44:09;33.92;;;16.27;;
63567;SDS011;49715;42.386;20.434;2022-12-18T16:46:36;29.38;;;16.23;;
63567;SDS011;49715;42.386;20.434;2022-12-18T16:51:32;28.13;;;13.95;;
63567;SDS011;49715;42.386;20.434;2022-12-18T16:53:58;27.38;;;14.23;;
63567;SDS011;49715;42.386;20.434;2022-12-18T16:56:25;31.52;;;15.05;;
63567;SDS011;49715;42.386;20.434;2022-12-18T16:58:55;31.53;;;15.60;;
63567;SDS011;49715;42.386;20.434;2022-12-18T17:01:23;27.13;;;13.60;;
63567;SDS011;49715;42.386;20.434;2022-12-18T17:03:54;29.70;;;15.20;;
63567;SDS011;49715;42.386;20.434;2022-12-18T17:06:23;34.60;;;15.40;;
63567;SDS011;49715;42.386;20.434;2022-12-18T17:08:54;29.10;;;16.20;;
63567;SDS011;49715;42.386;20.434;2022-12-18T17:11:27;31.43;;;15.50;;
63567;SDS011;49715;42.386;20.434;2022-12-18T17:13:55;32.53;;;15.30;;
63567;SDS011;49715;42.386;20.434;2022-12-18T17:16:21;25.55;;;14.57;;
63567;SDS011;49715;42.386;20.434;2022-12-18T17:18:48;27.80;;;13.85;;
63567;SDS011;49715;42.386;20.434;2022-12-18T17:21:15;32.10;;;15.38;;